Time;durP1;ratioP1;P1;durP2;ratioP2;P2;SDS_P1;SDS_P2;PMS_P1;PMS_P2;Temp;Humidity;BMP_temperature;BMP_pressure;BME280_temperature;BME280_humidity;BME280_pressure;Samples;Min_cycle;Max_cycle;Signal;HPM_P1;HPM_P2
2021/05/18 00:00:51;;;;;;;35.35;19.92;;;6.10;99.90;;;;;;4954273;29;20038;-79
2021/05/18 00:03:18;;;;;;;36.05;21.40;;;6.10;99.90;;;;;;4954156;29;20027;-79
2021/05/18 00:05:51;;;;;;;37.13;22.15;;;6.10;99.90;;;;;;4954922;28;20162;-79
2021/05/18 00:08:17;;;;;;;53.03;25.92;;;6.10;99.90;;;;;;4954636;28;20027;-79
2021/05/18 00:13:37;;;;;;;37.30;21.95;;;6.30;99.90;;;;;;4955018;29;20054;-80
2021/05/18 00:16:04;;;;;;;42.05;22.58;;;6.40;99.90;;;;;;4950451;29;20032;-79
2021/05/18 00:18:31;;;;;;;41.70;23.20;;;6.60;99.90;;;;;;4960594;28;20054;-79
2021/05/18 00:20:57;;;;;;;40.17;23.95;;;6.70;99.90;;;;;;4941802;28;20032;-79
2021/05/18 00:23:23;;;;;;;36.28;20.90;;;6.80;99.90;;;;;;4953271;28;20488;-79
2021/05/18 00:25:49;;;;;;;39.03;21.98;;;6.90;99.90;;;;;;4953962;28;20027;-79
2021/05/18 00:28:15;;;;;;;38.58;22.15;;;6.90;99.90;;;;;;4953932;29;20033;-80
2021/05/18 00:30:40;;;;;;;35.15;20.70;;;6.80;99.90;;;;;;4953636;29;20024;-79
2021/05/18 00:33:18;;;;;;;33.53;19.27;;;6.80;99.90;;;;;;4969485;28;20027;-79
2021/05/18 00:35:44;;;;;;;28.42;17.92;;;6.70;99.90;;;;;;4953934;28;20031;-79
2021/05/18 00:38:11;;;;;;;29.02;17.90;;;6.50;99.90;;;;;;4969549;28;20035;-79
2021/05/18 00:40:37;;;;;;;36.40;20.27;;;6.50;99.90;;;;;;4953259;28;20031;-79
2021/05/18 00:43:03;;;;;;;32.67;18.27;;;6.40;99.90;;;;;;4953604;28;20031;-79
2021/05/18 00:45:50;;;;;;;33.65;19.58;;;6.30;99.90;;;;;;4954327;28;20038;-79
2021/05/18 00:48:17;;;;;;;38.33;18.92;;;6.30;99.90;;;;;;4954626;28;20026;-79
2021/05/18 00:50:46;;;;;;;37.80;19.50;;;6.20;99.90;;;;;;4953147;29;20029;-79
2021/05/18 00:53:12;;;;;;;39.30;19.73;;;6.20;99.90;;;;;;4968565;28;20027;-79
2021/05/18 01:00:52;;;;;;;33.53;18.27;;;6.00;99.90;;;;;;4935380;29;20042;-79
2021/05/18 01:03:18;;;;;;;32.17;18.02;;;6.00;99.90;;;;;;4943862;28;20063;-79
2021/05/18 01:08:27;;;;;;;;;;;5.90;99.90;;;;;;4955044;29;20038;-79
2021/05/18 01:10:53;;;;;;;31.52;16.38;;;5.90;99.90;;;;;;4953382;29;19914;-79
2021/05/18 01:13:19;;;;;;;31.27;18.20;;;5.80;99.90;;;;;;4953199;29;20027;-79
2021/05/18 01:15:45;;;;;;;33.72;17.70;;;5.70;99.90;;;;;;4953981;28;20086;-79
2021/05/18 01:18:10;;;;;;;35.03;15.48;;;5.70;99.90;;;;;;4952825;29;20166;-79
2021/05/18 01:20:53;;;;;;;27.48;16.08;;;5.70;99.90;;;;;;4953201;29;20031;-80
2021/05/18 01:23:18;;;;;;;33.22;16.98;;;5.70;99.90;;;;;;4952117;28;20035;-79
2021/05/18 01:25:44;;;;;;;28.55;16.52;;;5.60;99.90;;;;;;4950563;29;20046;-80
2021/05/18 01:28:09;;;;;;;27.77;15.52;;;5.60;99.90;;;;;;4953098;29;20035;-80
2021/05/18 01:30:35;;;;;;;22.83;13.82;;;5.70;99.90;;;;;;4954037;29;20481;-80
2021/05/18 01:33:00;;;;;;;27.27;14.05;;;5.60;99.90;;;;;;4953727;29;20024;-80
2021/05/18 01:35:28;;;;;;;25.75;14.68;;;5.70;99.90;;;;;;4952185;28;20029;-79
2021/05/18 01:37:54;;;;;;;25.70;15.45;;;5.70;99.90;;;;;;4952983;28;20043;-80
2021/05/18 01:42:53;;;;;;;33.58;16.17;;;5.90;99.90;;;;;;4952813;29;20405;-79
2021/05/18 01:45:30;;;;;;;26.13;16.55;;;6.00;99.90;;;;;;4949053;29;20032;-80
2021/05/18 01:48:06;;;;;;;28.08;15.25;;;6.20;99.90;;;;;;4954856;28;20395;-80
2021/05/18 01:50:32;;;;;;;28.30;15.73;;;6.40;99.90;;;;;;4953896;28;20023;-80
2021/05/18 01:52:58;;;;;;;26.95;16.13;;;6.50;99.90;;;;;;4951676;28;20038;-80
2021/05/18 01:55:35;;;;;;;31.88;18.52;;;6.60;99.90;;;;;;4950591;29;20047;-80
2021/05/18 01:58:01;;;;;;;31.08;17.67;;;6.70;99.90;;;;;;4952809;28;20463;-80
2021/05/18 02:00:29;;;;;;;26.95;17.20;;;6.90;99.90;;;;;;4953712;29;20050;-80
2021/05/18 02:02:56;;;;;;;29.85;17.23;;;7.00;99.90;;;;;;4953678;28;20028;-80
2021/05/18 02:05:24;;;;;;;27.65;17.85;;;7.10;99.90;;;;;;4953385;28;20392;-80
2021/05/18 02:07:53;;;;;;;37.30;21.48;;;7.20;99.90;;;;;;4952056;28;20082;-79
2021/05/18 02:10:19;;;;;;;37.63;21.33;;;7.30;99.90;;;;;;4952851;29;20497;-80
2021/05/18 02:12:46;;;;;;;36.05;20.40;;;7.30;99.90;;;;;;4952685;28;20038;-80
2021/05/18 02:21:03;;;;;;;37.08;19.33;;;7.50;99.90;;;;;;4957073;28;20028;-80
2021/05/18 02:26:13;;;;;;;;;;;7.60;99.90;;;;;;4951492;29;20043;-80
2021/05/18 02:28:39;;;;;;;32.80;18.33;;;7.60;99.90;;;;;;4957122;28;19946;-80
2021/05/18 02:31:04;;;;;;;32.33;18.30;;;7.60;99.90;;;;;;4957035;29;20527;-80
2021/05/18 02:33:30;;;;;;;35.80;17.30;;;7.60;99.90;;;;;;4956942;28;20023;-80
2021/05/18 02:35:55;;;;;;;32.28;18.80;;;7.70;99.90;;;;;;4956857;28;20511;-80
2021/05/18 02:38:21;;;;;;;33.33;19.17;;;7.70;99.90;;;;;;4956226;29;20122;-80
2021/05/18 02:40:46;;;;;;;37.13;20.65;;;7.70;99.90;;;;;;4950818;28;20036;-80
2021/05/18 02:43:17;;;;;;;39.38;20.42;;;7.70;99.90;;;;;;4952174;29;20023;-80
2021/05/18 02:45:59;;;;;;;40.78;22.80;;;7.80;99.90;;;;;;4955904;28;20086;-80
2021/05/18 02:51:08;;;;;;;;;;;7.90;99.90;;;;;;4955797;28;20432;-80
2021/05/18 02:53:34;;;;;;;47.30;22.50;;;7.90;99.90;;;;;;4955567;29;19910;-80
2021/05/18 02:58:26;;;;;;;40.45;21.55;;;8.00;99.90;;;;;;4955646;29;20514;-80
2021/05/18 03:00:52;;;;;;;34.97;21.45;;;8.10;99.90;;;;;;4956592;28;20027;-80
2021/05/18 03:03:17;;;;;;;34.30;19.80;;;8.10;99.90;;;;;;4956535;29;20442;-80
2021/05/18 03:05:44;;;;;;;43.17;23.85;;;8.20;99.90;;;;;;4956300;28;20555;-80
2021/05/18 03:08:13;;;;;;;46.08;23.05;;;8.20;99.90;;;;;;4955687;29;20038;-80
2021/05/18 03:10:39;;;;;;;38.72;21.40;;;8.30;99.90;;;;;;4954471;28;20028;-80
2021/05/18 03:13:05;;;;;;;38.03;18.95;;;8.30;99.90;;;;;;4950671;28;20110;-80
2021/05/18 03:15:30;;;;;;;37.35;21.65;;;8.30;99.90;;;;;;4955457;29;20784;-80
2021/05/18 03:17:57;;;;;;;38.40;20.17;;;8.40;99.90;;;;;;4956188;29;20028;-80
2021/05/18 03:20:23;;;;;;;37.75;21.27;;;8.40;99.90;;;;;;4955206;28;20051;-80
2021/05/18 03:22:49;;;;;;;45.78;20.95;;;8.50;99.90;;;;;;4953891;28;20035;-80
2021/05/18 03:25:15;;;;;;;39.97;22.38;;;8.50;99.90;;;;;;4955219;29;20023;-80
2021/05/18 03:27:42;;;;;;;34.05;19.38;;;8.50;99.90;;;;;;4952422;28;20031;-80
2021/05/18 03:35:37;;;;;;;;;;;8.50;99.90;;;;;;4956264;29;20508;-80
2021/05/18 03:38:13;;;;;;;29.05;15.60;;;8.60;99.90;;;;;;4955856;28;19914;-80
2021/05/18 03:40:40;;;;;;;33.63;16.98;;;8.60;99.90;;;;;;4955229;28;20052;-80
2021/05/18 03:43:33;;;;;;;41.30;19.40;;;8.60;99.90;;;;;;4953561;29;20042;-80
2021/05/18 03:48:56;;;;;;;28.95;15.38;;;8.60;99.90;;;;;;4947762;29;20527;-80
2021/05/18 03:54:37;;;;;;;32.72;18.48;;;8.70;99.90;;;;;;4954710;29;20038;-80
2021/05/18 04:18:25;;;;;;;;;;;8.90;99.90;;;;;;4955889;29;20162;-80
2021/05/18 04:21:07;;;;;;;32.72;16.50;;;9.00;99.90;;;;;;4969199;28;20004;-81
2021/05/18 04:26:19;;;;;;;36.15;17.25;;;9.00;99.90;;;;;;4953997;29;20031;-80
2021/05/18 04:53:18;;;;;;;31.83;17.88;;;9.50;99.90;;;;;;4954859;28;20055;-80
2021/05/18 05:01:19;;;;;;;34.33;18.35;;;9.60;99.90;;;;;;4954381;29;20122;-80
2021/05/18 05:06:56;;;;;;;29.05;17.15;;;9.60;99.90;;;;;;4931937;29;20543;-80
2021/05/18 05:14:32;;;;;;;32.17;16.90;;;9.70;99.90;;;;;;4953993;29;20062;-80
2021/05/18 05:16:58;;;;;;;31.20;19.88;;;9.70;99.90;;;;;;4954265;29;20629;-80
2021/05/18 05:19:27;;;;;;;34.33;18.35;;;9.70;99.90;;;;;;4954041;29;20492;-80
2021/05/18 05:21:53;;;;;;;36.17;18.98;;;9.70;99.90;;;;;;4953790;28;20126;-80
2021/05/18 05:24:19;;;;;;;38.50;19.45;;;9.70;99.90;;;;;;4951766;28;20086;-80
2021/05/18 05:26:47;;;;;;;37.03;19.52;;;9.80;99.90;;;;;;4951324;28;20031;-80
2021/05/18 05:29:13;;;;;;;32.83;19.88;;;9.80;99.90;;;;;;4952577;29;20389;-80
2021/05/18 05:31:39;;;;;;;33.95;18.38;;;9.90;99.90;;;;;;4952708;29;20082;-80
2021/05/18 05:34:05;;;;;;;30.02;17.90;;;9.90;99.90;;;;;;4949240;29;20499;-80
2021/05/18 05:36:31;;;;;;;30.20;18.65;;;10.00;99.90;;;;;;4951128;29;20393;-80
2021/05/18 05:39:06;;;;;;;32.83;20.23;;;10.10;99.90;;;;;;4967665;28;20038;-79
2021/05/18 05:41:32;;;;;;;39.28;22.02;;;10.20;99.90;;;;;;4952141;28;20062;-80
2021/05/18 05:43:57;;;;;;;33.40;20.60;;;10.20;99.90;;;;;;4968230;28;20113;-80
2021/05/18 05:46:23;;;;;;;35.65;22.00;;;10.30;99.90;;;;;;4968844;28;20027;-80
2021/05/18 05:48:53;;;;;;;30.73;20.30;;;10.40;99.90;;;;;;4953590;28;20593;-80
2021/05/18 05:51:20;;;;;;;36.33;21.70;;;10.50;99.90;;;;;;4953247;28;20023;-80
2021/05/18 05:53:46;;;;;;;28.65;18.95;;;10.50;99.90;;;;;;4953642;28;20023;-81
2021/05/18 05:56:11;;;;;;;27.10;16.92;;;10.60;99.90;;;;;;4952082;28;20038;-80
2021/05/18 05:58:37;;;;;;;33.20;19.50;;;10.60;99.90;;;;;;4967145;28;20476;-80
2021/05/18 06:01:03;;;;;;;24.10;14.55;;;10.70;99.90;;;;;;4950563;28;20027;-80
2021/05/18 06:03:28;;;;;;;24.75;14.82;;;10.70;99.90;;;;;;4953261;29;20055;-80
2021/05/18 06:05:54;;;;;;;22.98;13.98;;;10.60;99.90;;;;;;4953061;29;20098;-81
2021/05/18 06:08:19;;;;;;;24.10;13.10;;;10.70;99.90;;;;;;4952093;28;20027;-80
2021/05/18 06:10:47;;;;;;;23.17;12.00;;;10.80;99.90;;;;;;4949708;28;20078;-80
2021/05/18 06:34:56;;;;;;;;;;;11.10;99.90;;;;;;4953461;29;20038;-80
2021/05/18 06:46:07;;;;;;;13.27;7.93;;;11.40;99.90;;;;;;4934699;29;20030;-80
2021/05/18 06:48:32;;;;;;;11.38;8.25;;;11.40;99.90;;;;;;4968013;28;20427;-80
2021/05/18 06:50:58;;;;;;;9.65;6.35;;;11.40;99.90;;;;;;4953139;28;20028;-79
2021/05/18 06:53:23;;;;;;;6.93;5.85;;;11.40;99.90;;;;;;4950986;28;20407;-80
2021/05/18 06:55:50;;;;;;;9.23;6.93;;;11.40;99.90;;;;;;4947673;28;20051;-79
2021/05/18 07:00:06;;;;;;;9.65;6.00;;;11.50;99.90;;;;;;4949310;29;20055;-80
2021/05/18 07:01:19;;;;;;;10.00;6.97;;;11.50;99.90;;;;;;4954230;28;20046;-79
2021/05/18 07:03:53;;;;;;;7.88;6.68;;;11.70;99.90;;;;;;4956218;29;20031;-80
2021/05/18 07:09:03;;;;;;;;;;;12.20;99.90;;;;;;4956370;29;20034;-80
2021/05/18 07:11:29;;;;;;;10.27;7.20;;;12.30;99.90;;;;;;4970345;28;19911;-80
2021/05/18 07:13:55;;;;;;;12.25;7.78;;;12.50;99.90;;;;;;4955943;28;20063;-80
2021/05/18 07:16:21;;;;;;;10.23;7.97;;;12.40;99.90;;;;;;4956356;29;20020;-80
2021/05/18 07:18:47;;;;;;;12.20;8.07;;;12.30;99.90;;;;;;4954824;29;20094;-80
2021/05/18 07:21:12;;;;;;;10.85;7.72;;;12.40;99.90;;;;;;4955120;29;20492;-80
2021/05/18 07:23:38;;;;;;;11.88;8.18;;;12.40;99.90;;;;;;4955329;29;20161;-79
2021/05/18 07:26:04;;;;;;;11.63;8.07;;;12.40;99.90;;;;;;4955068;29;20081;-80
2021/05/18 07:28:32;;;;;;;13.45;7.88;;;12.50;99.90;;;;;;4955276;28;20055;-79
2021/05/18 07:31:00;;;;;;;10.27;8.05;;;12.40;99.90;;;;;;4954639;29;20090;-79
2021/05/18 07:33:26;;;;;;;12.13;7.45;;;12.40;99.90;;;;;;4951592;29;20027;-80
2021/05/18 07:35:57;;;;;;;10.73;7.93;;;12.50;99.90;;;;;;4948242;29;20028;-80
2021/05/18 07:38:23;;;;;;;9.68;8.15;;;12.60;99.90;;;;;;4955904;28;20046;-80
2021/05/18 07:40:49;;;;;;;11.00;8.65;;;12.80;99.90;;;;;;4955062;28;20066;-79
2021/05/18 07:43:18;;;;;;;10.63;8.43;;;12.70;99.90;;;;;;4954661;28;20066;-79
2021/05/18 07:45:49;;;;;;;12.88;8.27;;;12.90;99.90;;;;;;4955887;28;20111;-80
2021/05/18 08:02:21;;;;;;;10.27;5.53;;;12.70;99.90;;;;;;4955587;29;20041;-80
2021/05/18 08:07:10;;;;;;;6.50;5.10;;;13.00;99.90;;;;;;4933842;29;20625;-80
2021/05/18 08:09:41;;;;;;;6.45;4.57;;;13.00;99.90;;;;;;4916585;29;20023;-80
2021/05/18 08:12:09;;;;;;;10.60;5.57;;;13.10;99.90;;;;;;4943174;28;20114;-81
2021/05/18 08:14:37;;;;;;;7.97;5.57;;;13.30;99.90;;;;;;4954836;28;20023;-80
2021/05/18 08:46:28;;;;;;;4.85;4.00;;;13.20;99.90;;;;;;4923124;28;20126;-79
2021/05/18 08:58:50;;;;;;;8.30;5.03;;;12.60;99.90;;;;;;4945847;29;20563;-78
2021/05/18 10:21:34;;;;;;;5.50;2.83;;;14.30;99.90;;;;;;4934668;29;20004;-79
2021/05/18 10:37:44;;;;;;;5.40;3.45;;;12.60;99.90;;;;;;4956297;28;20034;-78
2021/05/18 10:40:15;;;;;;;9.88;3.65;;;12.60;99.90;;;;;;4956319;28;20366;-78
2021/05/18 10:43:10;;;;;;;5.82;3.97;;;12.60;99.90;;;;;;4953997;28;20030;-78
2021/05/18 10:46:03;;;;;;;5.95;3.70;;;12.50;99.90;;;;;;4954257;29;20038;-78
2021/05/18 10:48:35;;;;;;;7.13;3.78;;;12.60;99.90;;;;;;4955552;29;20027;-78
2021/05/18 10:51:22;;;;;;;14.57;4.13;;;12.70;99.90;;;;;;4956604;29;20024;-79
2021/05/18 10:54:23;;;;;;;7.32;3.63;;;12.90;99.90;;;;;;4955376;29;20133;-79
2021/05/18 10:57:01;;;;;;;7.57;3.83;;;13.10;99.90;;;;;;4949030;29;20031;-79
2021/05/18 10:59:34;;;;;;;6.78;3.47;;;13.20;99.90;;;;;;4954380;28;20034;-79
2021/05/18 11:02:00;;;;;;;3.45;2.97;;;13.40;99.90;;;;;;4956378;28;20064;-79
2021/05/18 11:04:26;;;;;;;4.90;2.90;;;13.60;99.90;;;;;;4956300;29;20031;-78
2021/05/18 11:07:00;;;;;;;5.70;2.53;;;13.60;99.90;;;;;;4955489;28;20047;-79
2021/05/18 11:09:27;;;;;;;;;;;13.50;99.90;;;;;;4956983;28;20492;-79
2021/05/18 11:12:04;;;;;;;5.55;3.30;;;13.50;99.90;;;;;;4955725;28;19911;-80
2021/05/18 11:14:33;;;;;;;3.05;2.72;;;13.40;99.90;;;;;;4955139;28;20039;-79
2021/05/18 11:17:19;;;;;;;7.70;2.97;;;13.40;99.90;;;;;;4956393;28;20030;-79
2021/05/18 11:19:57;;;;;;;6.68;4.30;;;13.30;99.90;;;;;;4956047;28;20031;-79
2021/05/18 11:25:08;;;;;;;8.13;3.38;;;13.30;99.90;;;;;;4938797;29;20102;-79
2021/05/18 11:27:35;;;;;;;5.18;3.58;;;13.20;99.90;;;;;;4955158;28;20070;-78
2021/05/18 11:30:01;;;;;;;5.03;3.25;;;13.20;99.90;;;;;;4956007;28;20171;-79
2021/05/18 11:32:26;;;;;;;3.50;2.78;;;13.20;99.90;;;;;;4956036;28;20062;-79
2021/05/18 11:34:58;;;;;;;6.25;2.65;;;13.20;99.90;;;;;;4955633;29;20023;-78
2021/05/18 11:37:27;;;;;;;3.72;2.63;;;13.20;99.90;;;;;;4955811;28;20114;-78
2021/05/18 11:40:16;;;;;;;3.50;2.58;;;13.20;99.90;;;;;;4944135;28;20388;-81
2021/05/18 11:42:43;;;;;;;3.17;2.58;;;13.20;99.90;;;;;;4938599;28;20043;-78
2021/05/18 11:45:13;;;;;;;3.88;3.40;;;13.10;99.90;;;;;;4945049;29;20118;-79
2021/05/18 11:47:40;;;;;;;5.13;3.90;;;13.00;99.90;;;;;;4951623;28;20527;-78
2021/05/18 11:50:14;;;;;;;6.68;3.50;;;12.70;99.90;;;;;;4964858;28;20031;-78
2021/05/18 11:52:40;;;;;;;6.53;3.67;;;12.70;99.90;;;;;;4966250;28;20408;-80
2021/05/18 11:55:23;;;;;;;4.80;3.38;;;12.80;99.90;;;;;;4964852;28;20031;-79
2021/05/18 11:57:52;;;;;;;3.03;2.40;;;13.00;99.90;;;;;;4950785;28;20046;-80
2021/05/18 12:00:26;;;;;;;6.45;4.22;;;13.10;99.90;;;;;;4947994;28;20332;-79
2021/05/18 12:03:11;;;;;;;6.68;3.17;;;13.40;99.90;;;;;;4946644;28;20031;-79
2021/05/18 12:05:54;;;;;;;6.43;3.15;;;13.50;99.90;;;;;;4941084;29;20031;-79
2021/05/18 12:08:46;;;;;;;5.93;3.03;;;13.40;99.90;;;;;;4947859;28;20128;-79
2021/05/18 12:11:20;;;;;;;3.30;2.55;;;13.40;99.90;;;;;;4943914;29;20070;-79
2021/05/18 12:13:51;;;;;;;4.93;3.20;;;13.40;99.90;;;;;;4948405;28;20055;-80
2021/05/18 12:16:22;;;;;;;4.60;3.20;;;13.40;99.90;;;;;;4948437;29;20049;-79
2021/05/18 12:18:56;;;;;;;6.10;3.95;;;13.30;99.90;;;;;;4950835;28;20491;-80
2021/05/18 12:21:26;;;;;;;;;;;13.40;99.90;;;;;;4948966;28;20561;-80
2021/05/18 12:24:13;;;;;;;6.45;4.03;;;13.20;99.90;;;;;;4948809;29;19914;-79
2021/05/18 12:27:03;;;;;;;6.50;4.20;;;13.00;99.90;;;;;;4950028;29;20128;-80
2021/05/18 12:30:05;;;;;;;6.75;4.65;;;13.00;99.90;;;;;;4950637;28;20035;-80
2021/05/18 12:32:35;;;;;;;9.43;5.00;;;12.70;99.90;;;;;;4945199;29;20035;-80
2021/05/18 12:35:03;;;;;;;10.73;4.85;;;12.50;99.90;;;;;;4948979;29;20547;-80
2021/05/18 12:37:36;;;;;;;9.30;4.80;;;12.40;99.90;;;;;;4950734;29;20166;-80
2021/05/18 12:40:29;;;;;;;9.13;4.45;;;12.40;99.90;;;;;;4963395;28;20058;-80
2021/05/18 12:43:19;;;;;;;7.53;4.60;;;12.50;99.90;;;;;;4950114;28;20070;-80
2021/05/18 12:45:44;;;;;;;8.80;4.72;;;12.60;99.90;;;;;;4941074;29;20093;-80
2021/05/18 12:48:13;;;;;;;8.60;5.25;;;12.70;99.90;;;;;;4950032;29;20027;-79
2021/05/18 12:50:47;;;;;;;5.88;4.90;;;12.90;99.90;;;;;;4949026;29;20144;-80
2021/05/18 12:53:27;;;;;;;7.28;5.43;;;12.90;99.90;;;;;;4950659;28;20039;-79
2021/05/18 12:55:54;;;;;;;7.18;5.13;;;12.80;99.90;;;;;;4964610;28;20808;-79
2021/05/18 12:58:34;;;;;;;14.73;6.30;;;12.80;99.90;;;;;;4949711;28;20035;-79
2021/05/18 13:01:08;;;;;;;8.02;4.05;;;12.90;99.90;;;;;;4948814;29;20034;-79
2021/05/18 13:03:34;;;;;;;6.43;5.18;;;12.70;99.90;;;;;;4950244;28;20034;-79
2021/05/18 13:06:00;;;;;;;8.38;5.68;;;12.40;99.90;;;;;;4949569;28;20027;-80
2021/05/18 13:08:37;;;;;;;8.73;5.57;;;12.30;99.90;;;;;;4949705;28;20070;-80
2021/05/18 13:13:39;;;;;;;7.57;6.13;;;12.10;99.90;;;;;;4949604;28;20445;-79
2021/05/18 13:16:11;;;;;;;10.60;6.47;;;12.10;99.90;;;;;;4948329;29;20122;-79
2021/05/18 13:18:50;;;;;;;16.30;7.90;;;12.10;99.90;;;;;;4948128;29;20031;-80
2021/05/18 13:21:58;;;;;;;10.65;7.35;;;12.10;99.90;;;;;;4950475;28;20511;-79
2021/05/18 13:27:09;;;;;;;9.45;6.93;;;12.10;99.90;;;;;;4952348;29;20118;-79
2021/05/18 13:29:35;;;;;;;8.35;5.80;;;12.10;99.90;;;;;;4953602;28;20027;-79
2021/05/18 13:32:02;;;;;;;9.70;5.47;;;12.10;99.90;;;;;;4953534;28;20086;-80
2021/05/18 13:34:28;;;;;;;7.10;5.60;;;12.20;99.90;;;;;;4953452;28;20117;-79
2021/05/18 13:36:53;;;;;;;5.50;4.60;;;12.40;99.90;;;;;;4953868;29;20485;-78
2021/05/18 13:39:20;;;;;;;9.98;3.85;;;12.50;99.90;;;;;;4954082;29;20495;-80
2021/05/18 13:41:48;;;;;;;6.90;4.25;;;12.70;99.90;;;;;;4952576;29;20503;-79
2021/05/18 13:44:13;;;;;;;6.53;4.63;;;12.90;99.90;;;;;;4953043;29;20031;-80
2021/05/18 13:46:40;;;;;;;7.25;4.13;;;13.00;99.90;;;;;;4953418;29;20400;-79
2021/05/18 13:49:05;;;;;;;7.35;4.55;;;13.10;99.90;;;;;;4968666;28;20019;-79
2021/05/18 13:51:32;;;;;;;5.90;4.82;;;13.30;99.90;;;;;;4953738;28;20024;-79
2021/05/18 13:53:58;;;;;;;8.18;4.88;;;13.40;99.90;;;;;;4952122;28;20077;-79
2021/05/18 13:56:24;;;;;;;7.82;4.25;;;13.50;99.90;;;;;;4953753;28;20031;-78
2021/05/18 13:58:51;;;;;;;6.88;4.22;;;13.70;99.90;;;;;;4953361;29;20693;-79
2021/05/18 14:01:18;;;;;;;8.85;4.38;;;13.70;99.90;;;;;;4953629;28;20118;-79
2021/05/18 14:03:43;;;;;;;6.15;3.92;;;13.80;99.90;;;;;;4952073;29;20032;-79
2021/05/18 14:06:11;;;;;;;8.35;3.72;;;13.80;99.90;;;;;;4953579;29;20043;-79
2021/05/18 14:08:39;;;;;;;9.93;4.22;;;13.90;99.90;;;;;;4948997;29;20110;-79
2021/05/18 14:11:11;;;;;;;13.30;3.05;;;14.00;99.90;;;;;;4934321;29;20051;-78
2021/05/18 14:13:42;;;;;;;5.80;3.58;;;14.10;99.90;;;;;;4948057;29;20019;-79
2021/05/18 14:16:09;;;;;;;7.82;6.57;;;14.50;99.90;;;;;;4951501;28;20051;-78
2021/05/18 14:18:36;;;;;;;16.27;12.45;;;14.80;99.90;;;;;;4953176;28;20027;-79
2021/05/18 14:21:04;;;;;;;5.88;5.13;;;14.80;99.90;;;;;;4955150;29;20492;-79
2021/05/18 14:23:38;;;;;;;7.78;4.38;;;15.10;99.90;;;;;;4955618;29;20507;-79
2021/05/18 14:26:04;;;;;;;6.50;3.95;;;15.40;99.90;;;;;;4956740;28;20031;-80
2021/05/18 14:28:30;;;;;;;5.18;4.03;;;15.30;99.90;;;;;;4956676;28;20034;-79
2021/05/18 14:30:55;;;;;;;9.27;3.50;;;15.60;99.90;;;;;;4944716;28;20484;-79
2021/05/18 14:33:21;;;;;;;5.25;3.08;;;16.30;99.90;;;;;;4938036;29;20027;-79
2021/05/18 14:35:47;;;;;;;7.40;4.13;;;16.80;99.90;;;;;;4971022;28;20046;-79
2021/05/18 14:38:19;;;;;;;5.97;3.13;;;16.70;99.90;;;;;;4955695;29;20514;-79
2021/05/18 14:42:48;;;;;;;4.93;2.95;;;16.10;99.90;;;;;;4952134;29;20485;-79
2021/05/18 14:46:33;;;;;;;4.43;2.17;;;15.60;99.90;;;;;;4957092;29;20114;-82
2021/05/18 14:57:05;;;;;;;5.93;3.10;;;17.40;99.90;;;;;;4957067;29;20055;-81
2021/05/18 14:59:31;;;;;;;11.77;4.30;;;16.70;99.90;;;;;;4952453;28;20519;-81
2021/05/18 15:01:57;;;;;;;6.78;2.88;;;15.70;99.90;;;;;;4967993;28;20535;-80
2021/05/18 15:04:22;;;;;;;5.30;2.95;;;15.50;99.90;;;;;;4951962;29;20028;-80
2021/05/18 15:06:48;;;;;;;5.75;2.70;;;15.50;99.90;;;;;;4952344;29;20023;-81
2021/05/18 15:09:14;;;;;;;7.00;3.15;;;15.60;99.90;;;;;;4951852;29;20032;-81
2021/05/18 15:11:39;;;;;;;2.67;1.83;;;16.40;99.90;;;;;;4952267;29;20032;-81
2021/05/18 15:14:06;;;;;;;13.07;2.22;;;17.10;99.90;;;;;;4951419;29;20098;-80
2021/05/18 15:16:32;;;;;;;7.97;3.30;;;16.50;99.90;;;;;;4951847;29;20030;-81
2021/05/18 15:19:04;;;;;;;4.88;2.92;;;16.20;99.90;;;;;;4950565;28;20043;-81
2021/05/18 15:21:30;;;;;;;4.72;2.80;;;16.40;99.90;;;;;;4952046;28;20030;-81
2021/05/18 15:23:56;;;;;;;6.47;3.05;;;15.80;99.90;;;;;;4951813;29;20031;-79
2021/05/18 15:26:21;;;;;;;5.45;2.63;;;15.50;99.90;;;;;;4950168;29;20027;-79
2021/05/18 15:28:47;;;;;;;8.07;2.88;;;15.80;99.90;;;;;;4966113;28;20058;-79
2021/05/18 15:31:13;;;;;;;7.78;2.90;;;16.30;99.90;;;;;;4951886;29;20047;-79
2021/05/18 15:33:38;;;;;;;9.52;3.45;;;16.00;99.90;;;;;;4951946;29;20035;-79
2021/05/18 15:36:04;;;;;;;5.05;3.22;;;15.20;99.90;;;;;;4951565;29;20039;-78
2021/05/18 15:38:37;;;;;;;7.22;2.92;;;14.40;99.90;;;;;;4951205;28;20093;-78
2021/05/18 15:41:03;;;;;;;4.28;2.45;;;15.00;99.90;;;;;;4949512;28;20081;-79
2021/05/18 15:43:29;;;;;;;6.45;2.75;;;15.30;99.90;;;;;;4951332;28;20129;-78
2021/05/18 15:45:54;;;;;;;6.78;2.28;;;14.90;99.90;;;;;;4949945;29;20047;-78
2021/05/18 15:48:20;;;;;;;6.30;2.60;;;14.70;99.90;;;;;;4951378;29;20035;-79
2021/05/18 15:50:46;;;;;;;2.05;1.67;;;15.00;99.90;;;;;;4950259;29;20090;-79
2021/05/18 15:53:12;;;;;;;2.55;2.03;;;15.40;99.90;;;;;;4950956;28;20028;-80
2021/05/18 15:55:38;;;;;;;8.05;2.53;;;15.80;99.90;;;;;;4949542;29;20393;-79
2021/05/18 15:58:04;;;;;;;4.13;2.33;;;15.80;99.90;;;;;;4950848;28;20035;-79
2021/05/18 16:00:29;;;;;;;4.00;2.33;;;16.00;99.90;;;;;;4950406;28;20059;-79
2021/05/18 16:02:55;;;;;;;7.50;2.67;;;15.40;99.90;;;;;;4950018;29;20451;-79
2021/05/18 16:05:20;;;;;;;10.38;3.05;;;14.80;99.90;;;;;;4951234;29;20031;-79
2021/05/18 16:07:53;;;;;;;8.00;4.05;;;14.80;99.90;;;;;;4951670;29;20087;-80
2021/05/18 16:10:18;;;;;;;9.95;7.53;;;14.60;99.90;;;;;;4951416;28;20023;-79
2021/05/18 16:12:44;;;;;;;12.30;7.30;;;14.80;99.90;;;;;;4968607;28;20451;-78
2021/05/18 16:15:10;;;;;;;6.78;2.88;;;15.80;99.90;;;;;;4955134;28;20050;-79
2021/05/18 16:17:35;;;;;;;3.05;2.38;;;16.00;99.90;;;;;;4955385;28;20027;-81
2021/05/18 16:20:01;;;;;;;7.05;3.15;;;16.20;99.90;;;;;;4955302;28;20077;-80
2021/05/18 16:22:27;;;;;;;5.72;3.00;;;16.20;99.90;;;;;;4955049;28;20057;-81
2021/05/18 16:24:52;;;;;;;6.75;4.07;;;16.30;99.90;;;;;;4969549;28;20028;-81
2021/05/18 16:27:18;;;;;;;7.65;3.60;;;15.90;99.90;;;;;;4953828;29;20542;-81
2021/05/18 16:29:44;;;;;;;11.82;4.10;;;15.70;99.90;;;;;;4954721;29;20662;-81
2021/05/18 16:32:11;;;;;;;8.55;4.43;;;15.60;99.90;;;;;;4955007;28;20034;-81
2021/05/18 16:34:37;;;;;;;8.27;4.20;;;15.10;99.90;;;;;;4953810;28;20039;-82
2021/05/18 16:37:02;;;;;;;8.68;4.38;;;14.80;99.90;;;;;;4954640;28;20027;-81
2021/05/18 16:39:28;;;;;;;9.60;5.72;;;14.60;99.90;;;;;;4954821;28;20035;-80
2021/05/18 16:41:55;;;;;;;10.60;5.30;;;14.10;99.90;;;;;;4953473;28;20035;-79
2021/05/18 16:44:22;;;;;;;7.80;4.47;;;14.00;99.90;;;;;;4954240;28;20054;-81
2021/05/18 16:46:48;;;;;;;12.48;4.93;;;13.90;99.90;;;;;;4954530;28;20023;-81
2021/05/18 16:49:15;;;;;;;11.35;6.15;;;13.70;99.90;;;;;;4953483;29;20027;-81
2021/05/18 16:51:41;;;;;;;9.27;5.47;;;13.70;99.90;;;;;;4953376;28;20451;-81
2021/05/18 16:54:07;;;;;;;9.82;5.10;;;14.00;99.90;;;;;;4952837;29;20031;-81
2021/05/18 16:56:34;;;;;;;7.75;5.20;;;13.70;99.90;;;;;;4954469;28;20074;-81
2021/05/18 16:59:00;;;;;;;9.52;5.03;;;13.30;99.90;;;;;;4949914;29;20039;-81
2021/05/18 17:01:25;;;;;;;12.98;4.88;;;13.40;99.90;;;;;;4933956;29;20032;-80
2021/05/18 17:03:51;;;;;;;8.80;5.18;;;13.70;99.90;;;;;;4939202;29;20077;-78
2021/05/18 17:06:17;;;;;;;9.25;5.65;;;14.00;99.90;;;;;;4954350;29;20082;-79
2021/05/18 17:08:42;;;;;;;10.55;5.68;;;14.10;99.90;;;;;;4952951;29;20027;-79
2021/05/18 17:11:10;;;;;;;14.32;5.88;;;14.00;99.90;;;;;;4954194;29;20031;-79
2021/05/18 17:13:36;;;;;;;11.93;6.35;;;14.00;99.90;;;;;;4949613;29;20114;-80
2021/05/18 17:16:04;;;;;;;13.02;5.93;;;14.00;99.90;;;;;;4935039;29;20032;-79
2021/05/18 17:18:30;;;;;;;10.88;5.40;;;14.00;99.90;;;;;;4933861;29;20031;-78
2021/05/18 17:20:56;;;;;;;13.65;6.82;;;13.90;99.90;;;;;;4934929;29;20039;-78
2021/05/18 17:23:21;;;;;;;13.35;7.07;;;13.50;99.90;;;;;;4954478;28;20034;-80
2021/05/18 17:25:48;;;;;;;15.25;6.53;;;13.20;99.90;;;;;;4953775;29;20034;-78
2021/05/18 17:28:14;;;;;;;11.57;6.10;;;13.20;99.90;;;;;;4953839;29;20020;-79
2021/05/18 17:30:39;;;;;;;9.18;5.65;;;13.50;99.90;;;;;;4952857;29;20078;-78
2021/05/18 17:33:05;;;;;;;9.32;5.20;;;13.50;99.90;;;;;;4968793;28;20074;-79
2021/05/18 17:35:30;;;;;;;13.82;5.78;;;13.10;99.90;;;;;;4953482;29;20085;-79
2021/05/18 17:37:56;;;;;;;13.45;5.53;;;12.80;99.90;;;;;;4953789;29;20123;-79
2021/05/18 17:40:22;;;;;;;9.65;5.30;;;12.80;99.90;;;;;;4953835;29;20118;-81
2021/05/18 17:42:48;;;;;;;11.82;5.20;;;12.70;99.90;;;;;;4952536;29;20034;-83
2021/05/18 17:45:14;;;;;;;8.90;4.63;;;12.60;99.90;;;;;;4953068;28;20431;-80
2021/05/18 17:47:42;;;;;;;12.57;4.78;;;12.50;99.90;;;;;;4952648;29;20369;-82
2021/05/18 17:50:09;;;;;;;11.40;6.13;;;12.50;99.90;;;;;;4952549;29;20396;-81
2021/05/18 17:52:35;;;;;;;9.30;5.63;;;12.40;99.90;;;;;;4953717;28;20074;-81
2021/05/18 17:55:01;;;;;;;9.48;5.15;;;12.10;99.90;;;;;;4952129;29;20471;-81